sensor_id;sensor_type;location;lat;lon;timestamp;pressure;altitude;pressure_sealevel;temperature;humidity
43838;BME280;65998;46.256;7.534;2023-04-07T00:00:26;86841.13;;;15.06;48.00
43838;BME280;65998;46.256;7.534;2023-04-07T00:03:12;86843.09;;;15.09;48.12
43838;BME280;65998;46.256;7.534;2023-04-07T00:05:37;86840.91;;;15.14;47.99
43838;BME280;65998;46.256;7.534;2023-04-07T00:08:04;86839.44;;;15.17;48.08
43838;BME280;65998;46.256;7.534;2023-04-07T00:10:29;86842.69;;;15.23;48.07
43838;BME280;65998;46.256;7.534;2023-04-07T00:12:55;86835.63;;;15.28;48.28
43838;BME280;65998;46.256;7.534;2023-04-07T00:15:21;86838.91;;;15.35;48.11
43838;BME280;65998;46.256;7.534;2023-04-07T00:17:47;86831.88;;;15.38;48.16
43838;BME280;65998;46.256;7.534;2023-04-07T00:20:12;86834.59;;;15.40;48.13
43838;BME280;65998;46.256;7.534;2023-04-07T00:22:38;86835.94;;;15.41;48.46
43838;BME280;65998;46.256;7.534;2023-04-07T00:25:04;86832.44;;;15.43;48.40
43838;BME280;65998;46.256;7.534;2023-04-07T00:27:30;86826.84;;;15.45;48.43
43838;BME280;65998;46.256;7.534;2023-04-07T00:29:56;86828.88;;;15.46;48.56
43838;BME280;65998;46.256;7.534;2023-04-07T00:32:22;86830.16;;;15.49;48.65
43838;BME280;65998;46.256;7.534;2023-04-07T00:34:48;86823.28;;;15.48;48.67
43838;BME280;65998;46.256;7.534;2023-04-07T00:37:14;86823.22;;;15.50;48.62
43838;BME280;65998;46.256;7.534;2023-04-07T00:39:39;86819.72;;;15.52;48.74
43838;BME280;65998;46.256;7.534;2023-04-07T00:42:05;86816.25;;;15.51;48.67
43838;BME280;65998;46.256;7.534;2023-04-07T00:44:31;86815.47;;;15.55;48.91
43838;BME280;65998;46.256;7.534;2023-04-07T00:46:58;86807.81;;;15.55;48.90
43838;BME280;65998;46.256;7.534;2023-04-07T00:49:24;86809.84;;;15.57;49.00
43838;BME280;65998;46.256;7.534;2023-04-07T00:51:51;86806.41;;;15.56;48.94
43838;BME280;65998;46.256;7.534;2023-04-07T00:54:17;86802.81;;;15.62;49.07
43838;BME280;65998;46.256;7.534;2023-04-07T00:56:43;86799.38;;;15.61;49.04
43838;BME280;65998;46.256;7.534;2023-04-07T00:59:09;86802.09;;;15.63;48.99
43838;BME280;65998;46.256;7.534;2023-04-07T01:01:52;86795.81;;;15.65;49.01
43838;BME280;65998;46.256;7.534;2023-04-07T01:04:32;86799.94;;;15.66;49.07
43838;BME280;65998;46.256;7.534;2023-04-07T01:07:05;86798.44;;;15.69;49.14
43838;BME280;65998;46.256;7.534;2023-04-07T01:09:45;86793.53;;;15.72;49.09
43838;BME280;65998;46.256;7.534;2023-04-07T01:12:26;86779.63;;;15.74;49.06
43838;BME280;65998;46.256;7.534;2023-04-07T01:14:58;86778.19;;;15.75;49.10
43838;BME280;65998;46.256;7.534;2023-04-07T01:17:25;86769.88;;;15.75;49.06
43838;BME280;65998;46.256;7.534;2023-04-07T01:19:57;86769.13;;;15.76;49.05
43838;BME280;65998;46.256;7.534;2023-04-07T01:22:41;86766.25;;;15.80;49.02
43838;BME280;65998;46.256;7.534;2023-04-07T01:30:17;86760.03;;;15.80;49.00
43838;BME280;65998;46.256;7.534;2023-04-07T01:32:46;86755.16;;;15.80;49.03
43838;BME280;65998;46.256;7.534;2023-04-07T01:35:15;86762.06;;;15.81;49.01
43838;BME280;65998;46.256;7.534;2023-04-07T01:37:43;86752.31;;;15.82;49.05
43838;BME280;65998;46.256;7.534;2023-04-07T01:40:10;86749.56;;;15.82;49.05
43838;BME280;65998;46.256;7.534;2023-04-07T01:42:37;86753.69;;;15.83;49.11
43838;BME280;65998;46.256;7.534;2023-04-07T01:45:05;86747.38;;;15.85;49.13
43838;BME280;65998;46.256;7.534;2023-04-07T01:47:32;86749.41;;;15.86;49.19
43838;BME280;65998;46.256;7.534;2023-04-07T01:50:00;86747.25;;;15.89;49.16
43838;BME280;65998;46.256;7.534;2023-04-07T01:52:27;86745.91;;;15.88;49.05
43838;BME280;65998;46.256;7.534;2023-04-07T01:54:53;86738.94;;;15.89;49.16
43838;BME280;65998;46.256;7.534;2023-04-07T01:57:19;86735.50;;;15.88;48.99
43838;BME280;65998;46.256;7.534;2023-04-07T01:59:45;86739.63;;;15.89;49.00
43838;BME280;65998;46.256;7.534;2023-04-07T02:02:11;86737.53;;;15.90;49.14
43838;BME280;65998;46.256;7.534;2023-04-07T02:07:19;86739.50;;;15.93;49.23
43838;BME280;65998;46.256;7.534;2023-04-07T02:09:47;86733.94;;;15.93;49.40
43838;BME280;65998;46.256;7.534;2023-04-07T02:12:15;86729.75;;;15.94;49.33
43838;BME280;65998;46.256;7.534;2023-04-07T02:14:42;86735.38;;;15.92;49.29
43838;BME280;65998;46.256;7.534;2023-04-07T02:17:08;86729.75;;;15.94;49.38
43838;BME280;65998;46.256;7.534;2023-04-07T02:19:35;86722.19;;;15.93;49.13
43838;BME280;65998;46.256;7.534;2023-04-07T02:22:02;86719.28;;;15.97;49.40
43838;BME280;65998;46.256;7.534;2023-04-07T02:24:29;86711.03;;;15.95;49.43
43838;BME280;65998;46.256;7.534;2023-04-07T02:26:55;86713.06;;;15.96;49.41
43838;BME280;65998;46.256;7.534;2023-04-07T02:29:20;86711.63;;;15.98;49.36
43838;BME280;65998;46.256;7.534;2023-04-07T02:31:46;86711.63;;;15.98;49.52
43838;BME280;65998;46.256;7.534;2023-04-07T02:34:12;86706.03;;;16.00;49.29
43838;BME280;65998;46.256;7.534;2023-04-07T02:36:38;86708.13;;;15.99;49.41
43838;BME280;65998;46.256;7.534;2023-04-07T02:39:04;86712.94;;;16.01;49.37
43838;BME280;65998;46.256;7.534;2023-04-07T02:41:30;86705.28;;;16.01;49.37
43838;BME280;65998;46.256;7.534;2023-04-07T02:43:55;86697.66;;;16.02;49.38
43838;BME280;65998;46.256;7.534;2023-04-07T02:46:21;86702.50;;;16.01;49.27
43838;BME280;65998;46.256;7.534;2023-04-07T02:48:47;86692.78;;;16.02;49.29
43838;BME280;65998;46.256;7.534;2023-04-07T02:51:13;86692.78;;;16.02;49.23
43838;BME280;65998;46.256;7.534;2023-04-07T02:53:38;86681.03;;;16.02;49.31
43838;BME280;65998;46.256;7.534;2023-04-07T02:56:04;86683.72;;;16.04;49.36
43838;BME280;65998;46.256;7.534;2023-04-07T02:58:30;86680.94;;;16.04;49.18
43838;BME280;65998;46.256;7.534;2023-04-07T03:00:56;86675.41;;;16.04;49.23
43838;BME280;65998;46.256;7.534;2023-04-07T03:03:22;86679.53;;;16.05;49.28
43838;BME280;65998;46.256;7.534;2023-04-07T03:05:48;86674.00;;;16.05;49.11
43838;BME280;65998;46.256;7.534;2023-04-07T03:08:13;86665.66;;;16.05;49.07
43838;BME280;65998;46.256;7.534;2023-04-07T03:10:39;86663.56;;;16.05;49.41
43838;BME280;65998;46.256;7.534;2023-04-07T03:13:05;86659.38;;;16.06;49.14
43838;BME280;65998;46.256;7.534;2023-04-07T03:15:31;86656.59;;;16.06;49.22
43838;BME280;65998;46.256;7.534;2023-04-07T03:17:57;86660.72;;;16.07;49.30
43838;BME280;65998;46.256;7.534;2023-04-07T03:20:23;86655.88;;;16.08;49.26
43838;BME280;65998;46.256;7.534;2023-04-07T03:22:48;86647.56;;;16.08;49.40
43838;BME280;65998;46.256;7.534;2023-04-07T03:25:15;86655.13;;;16.09;49.12
43838;BME280;65998;46.256;7.534;2023-04-07T03:27:40;86644.09;;;16.07;49.23
43838;BME280;65998;46.256;7.534;2023-04-07T03:30:07;86641.94;;;16.10;49.25
43838;BME280;65998;46.256;7.534;2023-04-07T03:32:32;86638.50;;;16.09;49.13
43838;BME280;65998;46.256;7.534;2023-04-07T03:34:58;86634.28;;;16.10;49.34
43838;BME280;65998;46.256;7.534;2023-04-07T03:37:24;86626.66;;;16.11;49.27
43838;BME280;65998;46.256;7.534;2023-04-07T03:39:50;86626.66;;;16.11;49.14
43838;BME280;65998;46.256;7.534;2023-04-07T03:42:16;86623.22;;;16.10;49.14
43838;BME280;65998;46.256;7.534;2023-04-07T03:44:41;86621.78;;;16.11;49.11
43838;BME280;65998;46.256;7.534;2023-04-07T03:47:07;86623.88;;;16.11;49.04
43838;BME280;65998;46.256;7.534;2023-04-07T03:49:33;86621.13;;;16.11;49.08
43838;BME280;65998;46.256;7.534;2023-04-07T03:51:59;86614.16;;;16.12;49.08
43838;BME280;65998;46.256;7.534;2023-04-07T03:54:25;86612.72;;;16.13;48.97
43838;BME280;65998;46.256;7.534;2023-04-07T03:56:50;86607.84;;;16.13;49.00
43838;BME280;65998;46.256;7.534;2023-04-07T03:59:16;86609.22;;;16.14;49.01
43838;BME280;65998;46.256;7.534;2023-04-07T04:01:42;86605.75;;;16.14;49.18
43838;BME280;65998;46.256;7.534;2023-04-07T04:04:08;86598.78;;;16.15;49.21
43838;BME280;65998;46.256;7.534;2023-04-07T04:06:33;86598.13;;;16.14;48.92
43838;BME280;65998;46.256;7.534;2023-04-07T04:08:59;86598.13;;;16.14;49.02
43838;BME280;65998;46.256;7.534;2023-04-07T04:11:25;86596.78;;;16.13;49.33
43838;BME280;65998;46.256;7.534;2023-04-07T04:13:51;86591.91;;;16.14;49.13
43838;BME280;65998;46.256;7.534;2023-04-07T04:16:17;86598.78;;;16.15;49.17
43838;BME280;65998;46.256;7.534;2023-04-07T04:18:42;86595.34;;;16.14;48.96
43838;BME280;65998;46.256;7.534;2023-04-07T04:21:08;86598.78;;;16.15;49.04
43838;BME280;65998;46.256;7.534;2023-04-07T04:23:34;86591.16;;;16.15;49.16
43838;BME280;65998;46.256;7.534;2023-04-07T04:26:00;86589.72;;;16.16;49.05
43838;BME280;65998;46.256;7.534;2023-04-07T04:28:26;86575.88;;;16.16;49.29
43838;BME280;65998;46.256;7.534;2023-04-07T04:30:51;86577.22;;;16.17;49.09
43838;BME280;65998;46.256;7.534;2023-04-07T04:33:17;86570.25;;;16.18;49.27
43838;BME280;65998;46.256;7.534;2023-04-07T04:35:44;86573.69;;;16.19;49.10
43838;BME280;65998;46.256;7.534;2023-04-07T04:38:10;86574.44;;;16.17;49.01
43838;BME280;65998;46.256;7.534;2023-04-07T04:40:36;86577.91;;;16.18;48.98
43838;BME280;65998;46.256;7.534;2023-04-07T04:43:02;86570.94;;;16.19;49.04
43838;BME280;65998;46.256;7.534;2023-04-07T04:45:28;86574.38;;;16.19;49.08
43838;BME280;65998;46.256;7.534;2023-04-07T04:47:54;86573.03;;;16.18;49.12
43838;BME280;65998;46.256;7.534;2023-04-07T04:50:19;86578.50;;;16.20;49.02
43838;BME280;65998;46.256;7.534;2023-04-07T04:52:45;86572.94;;;16.20;48.92
43838;BME280;65998;46.256;7.534;2023-04-07T04:55:11;86568.06;;;16.21;48.89
43838;BME280;65998;46.256;7.534;2023-04-07T04:57:37;86565.31;;;16.21;49.12
43838;BME280;65998;46.256;7.534;2023-04-07T05:00:03;86566.66;;;16.22;49.08
43838;BME280;65998;46.256;7.534;2023-04-07T05:02:29;86565.97;;;16.21;48.97
43838;BME280;65998;46.256;7.534;2023-04-07T05:04:55;86550.03;;;16.22;48.98
43838;BME280;65998;46.256;7.534;2023-04-07T05:07:21;86554.22;;;16.21;49.03
43838;BME280;65998;46.256;7.534;2023-04-07T05:09:46;86554.22;;;16.21;49.26
43838;BME280;65998;46.256;7.534;2023-04-07T05:12:12;86554.88;;;16.21;49.21
43838;BME280;65998;46.256;7.534;2023-04-07T05:14:38;86554.88;;;16.21;49.14
43838;BME280;65998;46.256;7.534;2023-04-07T05:17:04;86551.38;;;16.23;49.23
43838;BME280;65998;46.256;7.534;2023-04-07T05:19:29;86544.41;;;16.24;48.95
43838;BME280;65998;46.256;7.534;2023-04-07T05:21:55;86551.28;;;16.25;49.08
43838;BME280;65998;46.256;7.534;2023-04-07T05:24:21;86538.19;;;16.23;49.21
43838;BME280;65998;46.256;7.534;2023-04-07T05:26:47;86531.88;;;16.25;49.32
43838;BME280;65998;46.256;7.534;2023-04-07T05:29:13;86538.09;;;16.25;49.15
43838;BME280;65998;46.256;7.534;2023-04-07T05:31:38;86534.66;;;16.25;49.15
43838;BME280;65998;46.256;7.534;2023-04-07T05:34:04;86529.72;;;16.27;49.29
43838;BME280;65998;46.256;7.534;2023-04-07T05:36:30;86519.31;;;16.28;49.41
43838;BME280;65998;46.256;7.534;2023-04-07T05:38:56;86519.91;;;16.31;49.63
43838;BME280;65998;46.256;7.534;2023-04-07T05:41:22;86515.69;;;16.32;49.47
43838;BME280;65998;46.256;7.534;2023-04-07T05:43:47;86512.84;;;16.34;49.61
43838;BME280;65998;46.256;7.534;2023-04-07T05:46:13;86503.09;;;16.35;49.52
43838;BME280;65998;46.256;7.534;2023-04-07T05:48:39;86505.88;;;16.35;49.55
43838;BME280;65998;46.256;7.534;2023-04-07T05:51:05;86506.56;;;16.35;49.52
43838;BME280;65998;46.256;7.534;2023-04-07T05:53:30;86502.34;;;16.36;49.20
43838;BME280;65998;46.256;7.534;2023-04-07T05:55:56;86508.56;;;16.37;49.17
43838;BME280;65998;46.256;7.534;2023-04-07T05:58:22;86507.91;;;16.36;48.85
43838;BME280;65998;46.256;7.534;2023-04-07T06:00:49;86507.81;;;16.38;48.99
43838;BME280;65998;46.256;7.534;2023-04-07T06:03:15;86516.22;;;16.36;48.88
43838;BME280;65998;46.256;7.534;2023-04-07T06:05:41;86515.53;;;16.36;48.85
43838;BME280;65998;46.256;7.534;2023-04-07T06:08:06;86514.88;;;16.35;48.64
43838;BME280;65998;46.256;7.534;2023-04-07T06:10:32;86519.75;;;16.35;48.74
43838;BME280;65998;46.256;7.534;2023-04-07T06:12:58;86514.28;;;16.33;48.52
43838;BME280;65998;46.256;7.534;2023-04-07T06:15:24;86513.59;;;16.32;48.36
43838;BME280;65998;46.256;7.534;2023-04-07T06:17:49;86512.94;;;16.32;48.45
43838;BME280;65998;46.256;7.534;2023-04-07T06:20:15;86510.16;;;16.32;48.26
43838;BME280;65998;46.256;7.534;2023-04-07T06:22:41;86517.19;;;16.28;48.43
43838;BME280;65998;46.256;7.534;2023-04-07T06:25:08;86514.34;;;16.31;48.27
43838;BME280;65998;46.256;7.534;2023-04-07T06:27:34;86522.00;;;16.30;48.34
43838;BME280;65998;46.256;7.534;2023-04-07T06:30:00;86520.72;;;16.27;48.35
43838;BME280;65998;46.256;7.534;2023-04-07T06:32:26;86533.91;;;16.26;48.38
43838;BME280;65998;46.256;7.534;2023-04-07T06:34:52;86531.81;;;16.27;48.23
43838;BME280;65998;46.256;7.534;2023-04-07T06:37:18;86538.78;;;16.26;48.06
43838;BME280;65998;46.256;7.534;2023-04-07T06:39:44;86542.22;;;16.26;48.17
43838;BME280;65998;46.256;7.534;2023-04-07T06:42:09;86553.31;;;16.26;48.20
43838;BME280;65998;46.256;7.534;2023-04-07T06:44:35;86566.50;;;16.26;48.13
43838;BME280;65998;46.256;7.534;2023-04-07T06:47:01;86564.47;;;16.24;48.16
43838;BME280;65998;46.256;7.534;2023-04-07T06:49:27;86568.69;;;16.23;48.14
43838;BME280;65998;46.256;7.534;2023-04-07T06:51:53;86579.78;;;16.23;48.07
43838;BME280;65998;46.256;7.534;2023-04-07T06:54:19;86583.97;;;16.22;47.81
43838;BME280;65998;46.256;7.534;2023-04-07T06:56:44;86590.19;;;16.23;47.95
43838;BME280;65998;46.256;7.534;2023-04-07T06:59:10;86599.91;;;16.22;48.00
43838;BME280;65998;46.256;7.534;2023-04-07T07:01:36;86612.44;;;16.21;47.73
43838;BME280;65998;46.256;7.534;2023-04-07T07:04:02;86621.41;;;16.21;47.96
43838;BME280;65998;46.256;7.534;2023-04-07T07:06:28;86620.75;;;16.21;47.75
43838;BME280;65998;46.256;7.534;2023-04-07T07:08:54;86635.34;;;16.19;47.75
43838;BME280;65998;46.256;7.534;2023-04-07T07:11:19;86643.75;;;16.17;47.63
43838;BME280;65998;46.256;7.534;2023-04-07T07:13:45;86651.38;;;16.17;47.62
43838;BME280;65998;46.256;7.534;2023-04-07T07:16:11;86654.84;;;16.17;47.54
43838;BME280;65998;46.256;7.534;2023-04-07T07:18:37;86654.16;;;16.17;47.75
43838;BME280;65998;46.256;7.534;2023-04-07T07:21:03;86652.13;;;16.15;47.55
43838;BME280;65998;46.256;7.534;2023-04-07T07:23:29;86663.97;;;16.14;47.68
43838;BME280;65998;46.256;7.534;2023-04-07T07:25:55;86661.88;;;16.14;47.48
43838;BME280;65998;46.256;7.534;2023-04-07T07:28:21;86659.84;;;16.13;47.57
43838;BME280;65998;46.256;7.534;2023-04-07T07:30:47;86664.78;;;16.10;47.37
43838;BME280;65998;46.256;7.534;2023-04-07T07:33:13;86659.25;;;16.10;47.25
43838;BME280;65998;46.256;7.534;2023-04-07T07:35:39;86666.88;;;16.10;47.33
43838;BME280;65998;46.256;7.534;2023-04-07T07:38:05;86668.31;;;16.09;47.40
43838;BME280;65998;46.256;7.534;2023-04-07T07:40:31;86671.06;;;16.09;47.38
43838;BME280;65998;46.256;7.534;2023-04-07T07:42:59;86671.75;;;16.09;47.49
43838;BME280;65998;46.256;7.534;2023-04-07T07:45:25;86670.41;;;16.08;47.54
43838;BME280;65998;46.256;7.534;2023-04-07T07:47:51;86669.03;;;16.07;47.36
43838;BME280;65998;46.256;7.534;2023-04-07T07:50:17;86669.72;;;16.08;47.70
43838;BME280;65998;46.256;7.534;2023-04-07T07:52:44;86666.94;;;16.08;47.74
43838;BME280;65998;46.256;7.534;2023-04-07T07:55:10;86659.31;;;16.08;47.83
43838;BME280;65998;46.256;7.534;2023-04-07T07:57:36;86647.56;;;16.08;47.71
43838;BME280;65998;46.256;7.534;2023-04-07T08:00:03;86648.97;;;16.07;47.84
43838;BME280;65998;46.256;7.534;2023-04-07T08:02:29;86644.09;;;16.07;48.04
43838;BME280;65998;46.256;7.534;2023-04-07T08:04:56;86643.34;;;16.09;48.10
43838;BME280;65998;46.256;7.534;2023-04-07T08:07:23;86638.50;;;16.09;47.98
43838;BME280;65998;46.256;7.534;2023-04-07T08:09:50;86629.56;;;16.07;47.97
43838;BME280;65998;46.256;7.534;2023-04-07T08:12:16;86626.06;;;16.08;47.76
43838;BME280;65998;46.256;7.534;2023-04-07T08:14:41;86629.50;;;16.09;47.83
43838;BME280;65998;46.256;7.534;2023-04-07T08:17:07;86629.50;;;16.09;47.96
43838;BME280;65998;46.256;7.534;2023-04-07T08:19:33;86630.84;;;16.10;47.93
43838;BME280;65998;46.256;7.534;2023-04-07T08:21:59;86623.88;;;16.11;47.86
43838;BME280;65998;46.256;7.534;2023-04-07T08:24:27;86623.81;;;16.13;48.07
43838;BME280;65998;46.256;7.534;2023-04-07T08:26:53;86627.31;;;16.11;47.96
43838;BME280;65998;46.256;7.534;2023-04-07T08:29:19;86632.88;;;16.11;47.80
43838;BME280;65998;46.256;7.534;2023-04-07T08:31:45;86643.97;;;16.11;48.06
43838;BME280;65998;46.256;7.534;2023-04-07T08:34:11;86647.41;;;16.12;48.16
43838;BME280;65998;46.256;7.534;2023-04-07T08:36:37;86648.81;;;16.11;48.15
43838;BME280;65998;46.256;7.534;2023-04-07T08:39:03;86643.28;;;16.11;48.18
43838;BME280;65998;46.256;7.534;2023-04-07T08:41:36;86648.69;;;16.15;48.25
43838;BME280;65998;46.256;7.534;2023-04-07T08:44:02;86651.53;;;16.13;48.23
43838;BME280;65998;46.256;7.534;2023-04-07T08:46:29;86663.97;;;16.14;48.21
43838;BME280;65998;46.256;7.534;2023-04-07T08:48:57;86665.25;;;16.17;48.20
43838;BME280;65998;46.256;7.534;2023-04-07T08:51:29;86663.91;;;16.16;48.33
43838;BME280;65998;46.256;7.534;2023-04-07T08:54:09;86657.59;;;16.17;48.15
43838;BME280;65998;46.256;7.534;2023-04-07T08:56:40;86659.03;;;16.16;48.19
43838;BME280;65998;46.256;7.534;2023-04-07T08:59:09;86656.94;;;16.17;48.02
43838;BME280;65998;46.256;7.534;2023-04-07T09:01:37;86659.09;;;16.14;48.08
43838;BME280;65998;46.256;7.534;2023-04-07T09:04:04;86658.34;;;16.16;48.19
43838;BME280;65998;46.256;7.534;2023-04-07T09:06:30;86668.09;;;16.15;47.82
43838;BME280;65998;46.256;7.534;2023-04-07T09:08:57;86665.91;;;16.17;48.68
43838;BME280;65998;46.256;7.534;2023-04-07T09:11:28;86665.19;;;16.19;49.12
43838;BME280;65998;46.256;7.534;2023-04-07T09:13:55;86669.97;;;16.20;49.03
43838;BME280;65998;46.256;7.534;2023-04-07T09:16:21;86666.44;;;16.22;48.81
43838;BME280;65998;46.256;7.534;2023-04-07T09:18:48;86672.00;;;16.22;48.80
43838;BME280;65998;46.256;7.534;2023-04-07T09:21:14;86664.28;;;16.24;48.60
43838;BME280;65998;46.256;7.534;2023-04-07T09:23:42;86669.00;;;16.28;48.66
43838;BME280;65998;46.256;7.534;2023-04-07T09:28:45;86663.31;;;16.32;48.60
43838;BME280;65998;46.256;7.534;2023-04-07T09:31:12;86664.00;;;16.33;48.62
43838;BME280;65998;46.256;7.534;2023-04-07T09:33:38;86665.28;;;16.36;48.65
43838;BME280;65998;46.256;7.534;2023-04-07T09:36:05;86667.97;;;16.38;48.71
43838;BME280;65998;46.256;7.534;2023-04-07T09:38:36;86672.78;;;16.39;48.64
43838;BME280;65998;46.256;7.534;2023-04-07T09:41:10;86669.25;;;16.41;48.57
43838;BME280;65998;46.256;7.534;2023-04-07T09:43:38;86674.03;;;16.42;48.52
43838;BME280;65998;46.256;7.534;2023-04-07T09:46:18;86677.44;;;16.45;48.57
43838;BME280;65998;46.256;7.534;2023-04-07T09:48:45;86678.09;;;16.45;48.54
43838;BME280;65998;46.256;7.534;2023-04-07T09:51:13;86677.44;;;16.45;48.49
43838;BME280;65998;46.256;7.534;2023-04-07T09:53:47;86672.47;;;16.47;48.45
43838;BME280;65998;46.256;7.534;2023-04-07T09:56:15;86667.59;;;16.48;48.33
43838;BME280;65998;46.256;7.534;2023-04-07T09:58:43;86666.19;;;16.49;48.57
43838;BME280;65998;46.256;7.534;2023-04-07T10:01:10;86669.50;;;16.53;48.81
43838;BME280;65998;46.256;7.534;2023-04-07T10:03:37;86673.47;;;16.58;48.96
43838;BME280;65998;46.256;7.534;2023-04-07T10:06:04;86674.06;;;16.61;49.32
43838;BME280;65998;46.256;7.534;2023-04-07T10:08:32;86671.88;;;16.64;49.54
43838;BME280;65998;46.256;7.534;2023-04-07T10:11:02;86652.44;;;16.66;49.63
43838;BME280;65998;46.256;7.534;2023-04-07T10:13:30;86655.22;;;16.66;49.86
43838;BME280;65998;46.256;7.534;2023-04-07T10:15:57;86655.91;;;16.64;49.83
43838;BME280;65998;46.256;7.534;2023-04-07T10:18:34;86658.59;;;16.68;49.91
43838;BME280;65998;46.256;7.534;2023-04-07T10:21:03;86649.59;;;16.68;49.93
43838;BME280;65998;46.256;7.534;2023-04-07T10:24:04;86648.84;;;16.69;49.76
43838;BME280;65998;46.256;7.534;2023-04-07T10:26:36;86659.28;;;16.69;50.08
43838;BME280;65998;46.256;7.534;2023-04-07T10:29:05;86648.94;;;16.67;49.82
43838;BME280;65998;46.256;7.534;2023-04-07T10:31:33;86640.59;;;16.67;49.99
43838;BME280;65998;46.256;7.534;2023-04-07T10:33:59;86648.25;;;16.67;50.02
43838;BME280;65998;46.256;7.534;2023-04-07T10:36:25;86649.59;;;16.68;50.20
43838;BME280;65998;46.256;7.534;2023-04-07T10:41:36;86648.09;;;16.71;50.33
43838;BME280;65998;46.256;7.534;2023-04-07T10:44:03;86640.44;;;16.71;50.56
43838;BME280;65998;46.256;7.534;2023-04-07T10:47:02;86648.63;;;16.75;50.76
43838;BME280;65998;46.256;7.534;2023-04-07T10:49:28;86644.50;;;16.74;50.88
43838;BME280;65998;46.256;7.534;2023-04-07T10:54:38;86645.03;;;16.79;51.06
43838;BME280;65998;46.256;7.534;2023-04-07T10:57:12;86640.06;;;16.81;51.03
43838;BME280;65998;46.256;7.534;2023-04-07T10:59:40;86636.53;;;16.83;51.24
43838;BME280;65998;46.256;7.534;2023-04-07T11:04:40;86641.94;;;16.87;51.52
43838;BME280;65998;46.256;7.534;2023-04-07T11:07:08;86634.28;;;16.87;51.59
43838;BME280;65998;46.256;7.534;2023-04-07T11:09:34;86638.41;;;16.88;51.70
43838;BME280;65998;46.256;7.534;2023-04-07T11:12:00;86636.97;;;16.89;51.63
43838;BME280;65998;46.256;7.534;2023-04-07T11:14:26;86637.59;;;16.92;51.71
43838;BME280;65998;46.256;7.534;2023-04-07T11:16:52;86644.47;;;16.93;51.90
43838;BME280;65998;46.256;7.534;2023-04-07T11:19:18;86644.41;;;16.95;51.96
43838;BME280;65998;46.256;7.534;2023-04-07T11:21:44;86641.56;;;16.97;52.09
43838;BME280;65998;46.256;7.534;2023-04-07T11:24:30;86651.06;;;17.02;52.25
43838;BME280;65998;46.256;7.534;2023-04-07T11:26:56;86643.50;;;17.01;52.15
43838;BME280;65998;46.256;7.534;2023-04-07T11:29:32;86648.81;;;17.07;52.31
43838;BME280;65998;46.256;7.534;2023-04-07T11:31:59;86643.25;;;17.07;52.58
43838;BME280;65998;46.256;7.534;2023-04-07T11:34:29;86648.66;;;17.11;52.50
43838;BME280;65998;46.256;7.534;2023-04-07T11:36:55;86645.88;;;17.11;52.70
43838;BME280;65998;46.256;7.534;2023-04-07T11:39:22;86648.56;;;17.13;52.85
43838;BME280;65998;46.256;7.534;2023-04-07T11:41:49;86651.94;;;17.15;52.93
43838;BME280;65998;46.256;7.534;2023-04-07T11:44:15;86653.28;;;17.16;52.95
43838;BME280;65998;46.256;7.534;2023-04-07T11:46:56;86651.72;;;17.21;52.85
43838;BME280;65998;46.256;7.534;2023-04-07T11:49:24;86654.56;;;17.19;52.86
43838;BME280;65998;46.256;7.534;2023-04-07T11:52:01;86646.16;;;17.21;52.94
43838;BME280;65998;46.256;7.534;2023-04-07T11:54:43;86651.63;;;17.23;53.06
43838;BME280;65998;46.256;7.534;2023-04-07T11:57:09;86649.59;;;17.22;53.21
43838;BME280;65998;46.256;7.534;2023-04-07T11:59:35;86646.84;;;17.22;53.19
43838;BME280;65998;46.256;7.534;2023-04-07T12:02:01;86646.06;;;17.23;53.26
43838;BME280;65998;46.256;7.534;2023-04-07T12:04:27;86652.31;;;17.24;53.06
43838;BME280;65998;46.256;7.534;2023-04-07T12:06:53;86648.78;;;17.26;52.87
43838;BME280;65998;46.256;7.534;2023-04-07T12:09:32;86651.38;;;17.30;52.73
43838;BME280;65998;46.256;7.534;2023-04-07T12:11:59;86649.38;;;17.28;52.58
43838;BME280;65998;46.256;7.534;2023-04-07T12:14:25;86662.41;;;17.32;52.33
43838;BME280;65998;46.256;7.534;2023-04-07T12:16:51;86654.16;;;17.30;52.11
43838;BME280;65998;46.256;7.534;2023-04-07T12:19:16;86649.97;;;17.31;51.94
43838;BME280;65998;46.256;7.534;2023-04-07T12:21:43;86648.53;;;17.32;51.91
43838;BME280;65998;46.256;7.534;2023-04-07T12:24:08;86653.41;;;17.31;51.79
43838;BME280;65998;46.256;7.534;2023-04-07T12:26:34;86650.63;;;17.31;51.64
43838;BME280;65998;46.256;7.534;2023-04-07T12:29:00;86650.63;;;17.31;51.69
43838;BME280;65998;46.256;7.534;2023-04-07T12:31:26;86645.09;;;17.31;51.44
43838;BME280;65998;46.256;7.534;2023-04-07T12:33:51;86654.75;;;17.32;51.49
43838;BME280;65998;46.256;7.534;2023-04-07T12:36:18;86643.66;;;17.32;51.29
43838;BME280;65998;46.256;7.534;2023-04-07T12:38:43;86649.88;;;17.33;51.25
43838;BME280;65998;46.256;7.534;2023-04-07T12:41:09;86642.91;;;17.34;51.20
43838;BME280;65998;46.256;7.534;2023-04-07T12:43:35;86642.91;;;17.34;51.24
43838;BME280;65998;46.256;7.534;2023-04-07T12:46:01;86647.78;;;17.33;51.17
43838;BME280;65998;46.256;7.534;2023-04-07T12:48:27;86644.94;;;17.35;51.23
43838;BME280;65998;46.256;7.534;2023-04-07T12:50:53;86646.28;;;17.36;51.17
43838;BME280;65998;46.256;7.534;2023-04-07T12:53:19;86649.81;;;17.35;51.14
43838;BME280;65998;46.256;7.534;2023-04-07T12:55:46;86646.28;;;17.36;50.84
43838;BME280;65998;46.256;7.534;2023-04-07T12:58:12;86649.81;;;17.35;50.77
43838;BME280;65998;46.256;7.534;2023-04-07T13:00:38;86649.81;;;17.35;50.66
43838;BME280;65998;46.256;7.534;2023-04-07T13:03:04;86651.81;;;17.36;50.54
43838;BME280;65998;46.256;7.534;2023-04-07T13:05:30;86650.47;;;17.35;50.47
43838;BME280;65998;46.256;7.534;2023-04-07T13:07:55;86644.25;;;17.35;50.16
43838;BME280;65998;46.256;7.534;2023-04-07T13:10:21;86647.03;;;17.35;50.19
43838;BME280;65998;46.256;7.534;2023-04-07T13:12:48;86644.84;;;17.37;50.15
43838;BME280;65998;46.256;7.534;2023-04-07T13:15:15;86642.16;;;17.35;50.30
43838;BME280;65998;46.256;7.534;2023-04-07T13:17:41;86641.41;;;17.37;50.38